sensor_id;sensor_type;location;lat;lon;timestamp;temperature;humidity
25973;DHT22;13765;51.166;4.466;2022-10-31T00:01:13;14.50;99.90
25973;DHT22;13765;51.166;4.466;2022-10-31T00:03:39;14.50;99.90
25973;DHT22;13765;51.166;4.466;2022-10-31T00:06:05;14.50;99.90
25973;DHT22;13765;51.166;4.466;2022-10-31T00:08:31;14.50;99.90
25973;DHT22;13765;51.166;4.466;2022-10-31T00:10:56;14.50;99.90
25973;DHT22;13765;51.166;4.466;2022-10-31T00:13:25;14.50;99.90
25973;DHT22;13765;51.166;4.466;2022-10-31T00:15:53;14.50;99.90
25973;DHT22;13765;51.166;4.466;2022-10-31T00:18:19;14.50;99.90
25973;DHT22;13765;51.166;4.466;2022-10-31T00:20:44;14.50;99.90
25973;DHT22;13765;51.166;4.466;2022-10-31T00:23:12;14.50;99.90
25973;DHT22;13765;51.166;4.466;2022-10-31T00:25:39;14.40;99.90
25973;DHT22;13765;51.166;4.466;2022-10-31T00:28:09;14.40;99.90
25973;DHT22;13765;51.166;4.466;2022-10-31T00:30:36;14.40;99.90
25973;DHT22;13765;51.166;4.466;2022-10-31T00:33:05;14.40;99.90
25973;DHT22;13765;51.166;4.466;2022-10-31T00:35:32;14.40;99.90
25973;DHT22;13765;51.166;4.466;2022-10-31T00:38:02;14.40;99.90
25973;DHT22;13765;51.166;4.466;2022-10-31T00:40:28;14.30;99.90
25973;DHT22;13765;51.166;4.466;2022-10-31T00:42:54;14.30;99.90
25973;DHT22;13765;51.166;4.466;2022-10-31T00:45:20;14.30;99.90
25973;DHT22;13765;51.166;4.466;2022-10-31T00:47:48;14.20;99.90
25973;DHT22;13765;51.166;4.466;2022-10-31T00:50:16;14.10;99.90
25973;DHT22;13765;51.166;4.466;2022-10-31T00:52:41;14.10;99.90
25973;DHT22;13765;51.166;4.466;2022-10-31T00:55:08;14.00;99.90
25973;DHT22;13765;51.166;4.466;2022-10-31T00:57:34;14.00;99.90
25973;DHT22;13765;51.166;4.466;2022-10-31T00:59:59;14.00;99.90
25973;DHT22;13765;51.166;4.466;2022-10-31T01:02:27;14.00;99.90
25973;DHT22;13765;51.166;4.466;2022-10-31T01:04:55;14.00;99.90
25973;DHT22;13765;51.166;4.466;2022-10-31T01:07:21;13.90;99.90
25973;DHT22;13765;51.166;4.466;2022-10-31T01:09:47;13.90;99.90
25973;DHT22;13765;51.166;4.466;2022-10-31T01:12:13;13.90;99.90
25973;DHT22;13765;51.166;4.466;2022-10-31T01:14:43;13.90;99.90
25973;DHT22;13765;51.166;4.466;2022-10-31T01:17:08;13.90;99.90
25973;DHT22;13765;51.166;4.466;2022-10-31T01:19:34;13.90;99.90
25973;DHT22;13765;51.166;4.466;2022-10-31T01:22:04;13.90;99.90
25973;DHT22;13765;51.166;4.466;2022-10-31T01:24:33;13.80;99.90
25973;DHT22;13765;51.166;4.466;2022-10-31T01:27:02;13.80;99.90
25973;DHT22;13765;51.166;4.466;2022-10-31T01:29:28;13.80;99.90
25973;DHT22;13765;51.166;4.466;2022-10-31T01:31:54;13.70;99.90
25973;DHT22;13765;51.166;4.466;2022-10-31T01:34:22;13.70;99.90
25973;DHT22;13765;51.166;4.466;2022-10-31T01:36:48;13.70;99.90
25973;DHT22;13765;51.166;4.466;2022-10-31T01:39:17;13.60;99.90
25973;DHT22;13765;51.166;4.466;2022-10-31T01:41:46;13.60;99.90
25973;DHT22;13765;51.166;4.466;2022-10-31T01:47:11;13.60;99.90
25973;DHT22;13765;51.166;4.466;2022-10-31T01:54:49;13.50;99.90
25973;DHT22;13765;51.166;4.466;2022-10-31T01:57:21;13.50;99.90
25973;DHT22;13765;51.166;4.466;2022-10-31T01:59:49;13.40;99.90
25973;DHT22;13765;51.166;4.466;2022-10-31T02:02:17;13.50;99.90
25973;DHT22;13765;51.166;4.466;2022-10-31T02:04:44;13.50;99.90
25973;DHT22;13765;51.166;4.466;2022-10-31T02:07:14;13.40;99.90
25973;DHT22;13765;51.166;4.466;2022-10-31T02:09:43;13.50;99.90
25973;DHT22;13765;51.166;4.466;2022-10-31T02:12:13;13.40;99.90
25973;DHT22;13765;51.166;4.466;2022-10-31T02:14:40;13.50;99.90
25973;DHT22;13765;51.166;4.466;2022-10-31T02:17:11;13.40;99.90
25973;DHT22;13765;51.166;4.466;2022-10-31T02:30:25;13.20;99.90
25973;DHT22;13765;51.166;4.466;2022-10-31T02:36:04;13.20;99.90
25973;DHT22;13765;51.166;4.466;2022-10-31T02:39:02;13.30;99.90
25973;DHT22;13765;51.166;4.466;2022-10-31T02:41:59;13.20;99.90
25973;DHT22;13765;51.166;4.466;2022-10-31T02:44:49;13.20;99.90
25973;DHT22;13765;51.166;4.466;2022-10-31T02:47:19;13.10;99.90
25973;DHT22;13765;51.166;4.466;2022-10-31T02:50:43;13.10;99.90
25973;DHT22;13765;51.166;4.466;2022-10-31T02:52:53;13.10;99.90
25973;DHT22;13765;51.166;4.466;2022-10-31T02:57:58;13.10;99.90
25973;DHT22;13765;51.166;4.466;2022-10-31T03:00:25;13.00;99.90
25973;DHT22;13765;51.166;4.466;2022-10-31T03:08:34;12.90;99.90
25973;DHT22;13765;51.166;4.466;2022-10-31T03:11:07;12.90;99.90
25973;DHT22;13765;51.166;4.466;2022-10-31T03:13:58;12.90;99.90
25973;DHT22;13765;51.166;4.466;2022-10-31T03:16:36;12.90;99.90
25973;DHT22;13765;51.166;4.466;2022-10-31T03:19:15;12.80;99.90
25973;DHT22;13765;51.166;4.466;2022-10-31T03:21:49;12.80;99.90
25973;DHT22;13765;51.166;4.466;2022-10-31T03:24:23;12.80;99.90
25973;DHT22;13765;51.166;4.466;2022-10-31T03:26:52;12.70;99.90
25973;DHT22;13765;51.166;4.466;2022-10-31T03:29:22;12.70;99.90
25973;DHT22;13765;51.166;4.466;2022-10-31T03:31:59;12.70;99.90
25973;DHT22;13765;51.166;4.466;2022-10-31T03:34:27;12.60;99.90
25973;DHT22;13765;51.166;4.466;2022-10-31T03:36:55;12.60;99.90
25973;DHT22;13765;51.166;4.466;2022-10-31T03:39:24;12.50;99.90
25973;DHT22;13765;51.166;4.466;2022-10-31T03:42:23;12.50;99.90
25973;DHT22;13765;51.166;4.466;2022-10-31T03:47:21;12.50;99.90
25973;DHT22;13765;51.166;4.466;2022-10-31T03:49:50;12.40;99.90
25973;DHT22;13765;51.166;4.466;2022-10-31T03:55:16;12.30;99.90
25973;DHT22;13765;51.166;4.466;2022-10-31T03:57:55;12.30;99.90
25973;DHT22;13765;51.166;4.466;2022-10-31T04:00:22;12.30;99.90
25973;DHT22;13765;51.166;4.466;2022-10-31T04:03:01;12.20;99.90
25973;DHT22;13765;51.166;4.466;2022-10-31T04:05:32;12.20;99.90
25973;DHT22;13765;51.166;4.466;2022-10-31T04:08:03;12.20;99.90
25973;DHT22;13765;51.166;4.466;2022-10-31T04:10:33;12.20;99.90
25973;DHT22;13765;51.166;4.466;2022-10-31T04:13:04;12.10;99.90
25973;DHT22;13765;51.166;4.466;2022-10-31T04:15:33;12.10;99.90
25973;DHT22;13765;51.166;4.466;2022-10-31T04:18:00;12.10;99.90
25973;DHT22;13765;51.166;4.466;2022-10-31T04:20:37;12.00;99.90
25973;DHT22;13765;51.166;4.466;2022-10-31T04:23:03;12.00;99.90
25973;DHT22;13765;51.166;4.466;2022-10-31T04:25:29;12.00;99.90
25973;DHT22;13765;51.166;4.466;2022-10-31T04:27:55;12.00;99.90
25973;DHT22;13765;51.166;4.466;2022-10-31T04:30:21;11.90;99.90
25973;DHT22;13765;51.166;4.466;2022-10-31T04:32:46;11.90;99.90
25973;DHT22;13765;51.166;4.466;2022-10-31T04:35:13;11.90;99.90
25973;DHT22;13765;51.166;4.466;2022-10-31T04:37:41;11.90;99.90
25973;DHT22;13765;51.166;4.466;2022-10-31T04:40:07;11.80;99.90
25973;DHT22;13765;51.166;4.466;2022-10-31T04:42:33;11.80;99.90
25973;DHT22;13765;51.166;4.466;2022-10-31T04:44:59;11.80;99.90
25973;DHT22;13765;51.166;4.466;2022-10-31T04:47:24;11.80;99.90
25973;DHT22;13765;51.166;4.466;2022-10-31T04:49:50;11.80;99.90
25973;DHT22;13765;51.166;4.466;2022-10-31T04:52:16;11.80;99.90
25973;DHT22;13765;51.166;4.466;2022-10-31T04:54:41;11.70;99.90
25973;DHT22;13765;51.166;4.466;2022-10-31T04:57:07;11.70;99.90
25973;DHT22;13765;51.166;4.466;2022-10-31T04:59:33;11.70;99.90
25973;DHT22;13765;51.166;4.466;2022-10-31T05:02:01;11.60;99.90
25973;DHT22;13765;51.166;4.466;2022-10-31T05:04:30;11.60;99.90
25973;DHT22;13765;51.166;4.466;2022-10-31T05:06:56;11.60;99.90
25973;DHT22;13765;51.166;4.466;2022-10-31T05:09:22;11.60;99.90
25973;DHT22;13765;51.166;4.466;2022-10-31T05:11:47;11.60;99.90
25973;DHT22;13765;51.166;4.466;2022-10-31T05:14:15;11.60;99.90
25973;DHT22;13765;51.166;4.466;2022-10-31T05:16:41;11.60;99.90
25973;DHT22;13765;51.166;4.466;2022-10-31T05:19:06;11.60;99.90
25973;DHT22;13765;51.166;4.466;2022-10-31T05:21:35;11.60;99.90
25973;DHT22;13765;51.166;4.466;2022-10-31T05:24:01;11.60;99.90
25973;DHT22;13765;51.166;4.466;2022-10-31T05:26:27;11.50;99.90
25973;DHT22;13765;51.166;4.466;2022-10-31T05:28:56;11.50;99.90
25973;DHT22;13765;51.166;4.466;2022-10-31T05:31:24;11.50;99.90
25973;DHT22;13765;51.166;4.466;2022-10-31T05:33:49;11.50;99.90
25973;DHT22;13765;51.166;4.466;2022-10-31T05:36:17;11.50;99.90
25973;DHT22;13765;51.166;4.466;2022-10-31T05:38:45;11.50;99.90
25973;DHT22;13765;51.166;4.466;2022-10-31T05:41:11;11.50;99.90
25973;DHT22;13765;51.166;4.466;2022-10-31T05:43:39;11.50;99.90
25973;DHT22;13765;51.166;4.466;2022-10-31T05:46:07;11.50;99.90
25973;DHT22;13765;51.166;4.466;2022-10-31T05:48:32;11.50;99.90
25973;DHT22;13765;51.166;4.466;2022-10-31T05:51:00;11.50;99.90
25973;DHT22;13765;51.166;4.466;2022-10-31T05:53:29;11.50;99.90
25973;DHT22;13765;51.166;4.466;2022-10-31T05:55:57;11.50;99.90
25973;DHT22;13765;51.166;4.466;2022-10-31T05:58:25;11.50;99.90
25973;DHT22;13765;51.166;4.466;2022-10-31T06:00:53;11.50;99.90
25973;DHT22;13765;51.166;4.466;2022-10-31T06:03:19;11.60;99.90
25973;DHT22;13765;51.166;4.466;2022-10-31T06:05:47;11.60;99.90
25973;DHT22;13765;51.166;4.466;2022-10-31T06:08:13;11.60;99.90
25973;DHT22;13765;51.166;4.466;2022-10-31T06:10:41;11.60;99.90
25973;DHT22;13765;51.166;4.466;2022-10-31T06:13:07;11.60;99.90
25973;DHT22;13765;51.166;4.466;2022-10-31T06:15:35;11.60;99.90
25973;DHT22;13765;51.166;4.466;2022-10-31T06:18:03;11.60;99.90
25973;DHT22;13765;51.166;4.466;2022-10-31T06:20:30;11.70;99.90
25973;DHT22;13765;51.166;4.466;2022-10-31T06:22:59;11.80;99.90
25973;DHT22;13765;51.166;4.466;2022-10-31T06:25:26;11.80;99.90
25973;DHT22;13765;51.166;4.466;2022-10-31T06:27:54;11.80;99.90
25973;DHT22;13765;51.166;4.466;2022-10-31T06:30:20;11.90;99.90
25973;DHT22;13765;51.166;4.466;2022-10-31T06:32:46;12.00;99.90
25973;DHT22;13765;51.166;4.466;2022-10-31T06:35:15;12.00;99.90
25973;DHT22;13765;51.166;4.466;2022-10-31T06:37:40;12.00;99.90
25973;DHT22;13765;51.166;4.466;2022-10-31T06:40:06;12.00;99.90
25973;DHT22;13765;51.166;4.466;2022-10-31T06:42:34;12.10;99.90
25973;DHT22;13765;51.166;4.466;2022-10-31T06:45:00;12.10;99.90
25973;DHT22;13765;51.166;4.466;2022-10-31T06:47:26;12.10;99.90
25973;DHT22;13765;51.166;4.466;2022-10-31T06:49:54;12.10;99.90
25973;DHT22;13765;51.166;4.466;2022-10-31T06:52:22;12.20;99.90
25973;DHT22;13765;51.166;4.466;2022-10-31T06:54:51;12.20;99.90
25973;DHT22;13765;51.166;4.466;2022-10-31T06:57:18;12.30;99.90
25973;DHT22;13765;51.166;4.466;2022-10-31T06:59:45;12.30;99.90
25973;DHT22;13765;51.166;4.466;2022-10-31T07:02:11;12.30;99.90
25973;DHT22;13765;51.166;4.466;2022-10-31T07:04:39;12.40;99.90
25973;DHT22;13765;51.166;4.466;2022-10-31T07:07:08;12.40;99.90
25973;DHT22;13765;51.166;4.466;2022-10-31T07:09:34;12.50;99.90
25973;DHT22;13765;51.166;4.466;2022-10-31T07:12:01;12.50;99.90
25973;DHT22;13765;51.166;4.466;2022-10-31T07:14:30;12.60;99.90
25973;DHT22;13765;51.166;4.466;2022-10-31T07:16:55;12.60;99.90
25973;DHT22;13765;51.166;4.466;2022-10-31T07:19:25;12.70;99.90
25973;DHT22;13765;51.166;4.466;2022-10-31T07:21:57;12.70;99.90
25973;DHT22;13765;51.166;4.466;2022-10-31T07:24:23;12.80;99.90
25973;DHT22;13765;51.166;4.466;2022-10-31T07:26:49;12.80;99.90
25973;DHT22;13765;51.166;4.466;2022-10-31T07:29:15;12.90;99.90
25973;DHT22;13765;51.166;4.466;2022-10-31T07:31:40;13.00;99.90
25973;DHT22;13765;51.166;4.466;2022-10-31T07:34:09;13.10;99.90
25973;DHT22;13765;51.166;4.466;2022-10-31T07:36:37;13.20;99.90
25973;DHT22;13765;51.166;4.466;2022-10-31T07:39:03;13.30;99.90
25973;DHT22;13765;51.166;4.466;2022-10-31T07:41:28;13.30;99.90
25973;DHT22;13765;51.166;4.466;2022-10-31T07:43:54;13.30;99.90
25973;DHT22;13765;51.166;4.466;2022-10-31T07:46:23;13.30;99.90
25973;DHT22;13765;51.166;4.466;2022-10-31T07:48:49;13.40;99.90
25973;DHT22;13765;51.166;4.466;2022-10-31T07:51:15;13.40;99.90
25973;DHT22;13765;51.166;4.466;2022-10-31T07:53:45;13.40;99.90
25973;DHT22;13765;51.166;4.466;2022-10-31T07:56:11;13.60;99.90
25973;DHT22;13765;51.166;4.466;2022-10-31T07:58:36;13.60;99.90
25973;DHT22;13765;51.166;4.466;2022-10-31T08:01:02;13.60;99.90
25973;DHT22;13765;51.166;4.466;2022-10-31T08:03:30;13.60;99.90
25973;DHT22;13765;51.166;4.466;2022-10-31T08:05:57;13.60;99.90
25973;DHT22;13765;51.166;4.466;2022-10-31T08:08:27;13.70;99.90
25973;DHT22;13765;51.166;4.466;2022-10-31T08:10:54;13.70;99.90
25973;DHT22;13765;51.166;4.466;2022-10-31T08:13:24;13.80;99.90
25973;DHT22;13765;51.166;4.466;2022-10-31T08:15:51;13.80;99.90
25973;DHT22;13765;51.166;4.466;2022-10-31T08:18:21;13.70;99.90
25973;DHT22;13765;51.166;4.466;2022-10-31T08:20:49;13.80;99.90
25973;DHT22;13765;51.166;4.466;2022-10-31T08:23:14;13.90;99.90
25973;DHT22;13765;51.166;4.466;2022-10-31T08:25:45;13.90;99.90
25973;DHT22;13765;51.166;4.466;2022-10-31T08:28:15;14.00;99.90
25973;DHT22;13765;51.166;4.466;2022-10-31T08:30:46;14.00;99.90
25973;DHT22;13765;51.166;4.466;2022-10-31T08:33:17;14.10;99.90
25973;DHT22;13765;51.166;4.466;2022-10-31T08:35:45;14.20;99.90
25973;DHT22;13765;51.166;4.466;2022-10-31T08:38:16;14.30;99.90
25973;DHT22;13765;51.166;4.466;2022-10-31T08:40:42;14.40;99.90
25973;DHT22;13765;51.166;4.466;2022-10-31T08:43:13;14.60;99.90
25973;DHT22;13765;51.166;4.466;2022-10-31T08:45:42;14.70;99.90
25973;DHT22;13765;51.166;4.466;2022-10-31T08:48:15;14.80;99.90
25973;DHT22;13765;51.166;4.466;2022-10-31T08:50:43;14.90;99.90
25973;DHT22;13765;51.166;4.466;2022-10-31T08:53:15;14.90;99.90
25973;DHT22;13765;51.166;4.466;2022-10-31T08:55:42;14.90;99.90
25973;DHT22;13765;51.166;4.466;2022-10-31T08:58:14;15.00;99.90
25973;DHT22;13765;51.166;4.466;2022-10-31T09:00:41;15.00;99.90
25973;DHT22;13765;51.166;4.466;2022-10-31T09:03:14;14.90;99.90
25973;DHT22;13765;51.166;4.466;2022-10-31T09:05:43;14.90;99.90
25973;DHT22;13765;51.166;4.466;2022-10-31T09:08:13;15.00;99.90
25973;DHT22;13765;51.166;4.466;2022-10-31T09:10:39;15.00;99.90
25973;DHT22;13765;51.166;4.466;2022-10-31T09:13:11;15.10;99.90
25973;DHT22;13765;51.166;4.466;2022-10-31T09:15:39;15.10;99.90
25973;DHT22;13765;51.166;4.466;2022-10-31T09:18:06;15.10;99.90
25973;DHT22;13765;51.166;4.466;2022-10-31T09:20:36;15.00;99.90
25973;DHT22;13765;51.166;4.466;2022-10-31T09:23:07;15.00;99.90
25973;DHT22;13765;51.166;4.466;2022-10-31T09:25:37;15.10;99.90
25973;DHT22;13765;51.166;4.466;2022-10-31T09:28:04;15.10;99.90
25973;DHT22;13765;51.166;4.466;2022-10-31T09:30:32;15.10;99.90
25973;DHT22;13765;51.166;4.466;2022-10-31T09:32:59;15.10;99.90
25973;DHT22;13765;51.166;4.466;2022-10-31T09:35:26;15.10;99.90
25973;DHT22;13765;51.166;4.466;2022-10-31T09:38:08;15.10;99.90
25973;DHT22;13765;51.166;4.466;2022-10-31T09:40:39;15.10;99.90
25973;DHT22;13765;51.166;4.466;2022-10-31T09:48:21;15.30;99.90
25973;DHT22;13765;51.166;4.466;2022-10-31T09:50:55;15.20;99.90
25973;DHT22;13765;51.166;4.466;2022-10-31T09:53:27;15.20;99.90
25973;DHT22;13765;51.166;4.466;2022-10-31T09:55:57;15.30;99.90
25973;DHT22;13765;51.166;4.466;2022-10-31T09:58:29;15.30;99.90
25973;DHT22;13765;51.166;4.466;2022-10-31T10:01:00;15.30;99.90
25973;DHT22;13765;51.166;4.466;2022-10-31T10:03:39;15.40;99.90
25973;DHT22;13765;51.166;4.466;2022-10-31T10:06:23;15.40;99.90
25973;DHT22;13765;51.166;4.466;2022-10-31T10:08:52;15.50;99.90
25973;DHT22;13765;51.166;4.466;2022-10-31T10:19:23;15.60;99.90
25973;DHT22;13765;51.166;4.466;2022-10-31T10:25:16;15.80;99.90
25973;DHT22;13765;51.166;4.466;2022-10-31T10:33:03;16.30;99.90
25973;DHT22;13765;51.166;4.466;2022-10-31T10:35:39;16.40;99.90
25973;DHT22;13765;51.166;4.466;2022-10-31T10:38:20;16.50;99.90
25973;DHT22;13765;51.166;4.466;2022-10-31T10:40:53;16.60;99.90
25973;DHT22;13765;51.166;4.466;2022-10-31T10:58:02;16.80;99.90
25973;DHT22;13765;51.166;4.466;2022-10-31T11:03:03;17.00;99.90
25973;DHT22;13765;51.166;4.466;2022-10-31T11:08:04;17.20;99.90
25973;DHT22;13765;51.166;4.466;2022-10-31T11:10:30;17.20;99.90
25973;DHT22;13765;51.166;4.466;2022-10-31T11:13:05;17.30;99.90
25973;DHT22;13765;51.166;4.466;2022-10-31T11:15:36;17.50;99.90
25973;DHT22;13765;51.166;4.466;2022-10-31T11:18:02;17.40;99.90
25973;DHT22;13765;51.166;4.466;2022-10-31T11:20:32;17.30;99.90
25973;DHT22;13765;51.166;4.466;2022-10-31T11:23:23;17.20;99.90
25973;DHT22;13765;51.166;4.466;2022-10-31T11:28:22;17.00;99.90
25973;DHT22;13765;51.166;4.466;2022-10-31T11:30:56;16.90;99.90
25973;DHT22;13765;51.166;4.466;2022-10-31T11:36:23;16.90;99.90
25973;DHT22;13765;51.166;4.466;2022-10-31T11:38:50;16.90;99.90
25973;DHT22;13765;51.166;4.466;2022-10-31T11:41:25;17.10;99.90
25973;DHT22;13765;51.166;4.466;2022-10-31T11:46:50;17.10;99.90
25973;DHT22;13765;51.166;4.466;2022-10-31T11:49:28;17.10;99.90
25973;DHT22;13765;51.166;4.466;2022-10-31T11:52:00;17.20;99.90
25973;DHT22;13765;51.166;4.466;2022-10-31T11:54:32;17.20;99.90
25973;DHT22;13765;51.166;4.466;2022-10-31T11:57:03;17.40;99.90
25973;DHT22;13765;51.166;4.466;2022-10-31T11:59:31;17.50;99.90
25973;DHT22;13765;51.166;4.466;2022-10-31T12:01:59;17.60;99.90
25973;DHT22;13765;51.166;4.466;2022-10-31T12:04:30;17.70;99.90
25973;DHT22;13765;51.166;4.466;2022-10-31T12:06:58;17.70;99.90
25973;DHT22;13765;51.166;4.466;2022-10-31T12:09:34;17.80;99.90
25973;DHT22;13765;51.166;4.466;2022-10-31T12:15:15;17.90;99.90
25973;DHT22;13765;51.166;4.466;2022-10-31T12:20:54;18.00;99.90
25973;DHT22;13765;51.166;4.466;2022-10-31T12:26:11;18.10;99.90
25973;DHT22;13765;51.166;4.466;2022-10-31T12:28:53;18.10;99.90
25973;DHT22;13765;51.166;4.466;2022-10-31T12:31:55;18.20;99.90
25973;DHT22;13765;51.166;4.466;2022-10-31T12:37:36;18.40;99.90
25973;DHT22;13765;51.166;4.466;2022-10-31T12:45:52;18.30;99.90
25973;DHT22;13765;51.166;4.466;2022-10-31T12:48:44;18.50;99.90
25973;DHT22;13765;51.166;4.466;2022-10-31T12:51:33;18.60;99.90
25973;DHT22;13765;51.166;4.466;2022-10-31T13:07:41;18.60;99.90
25973;DHT22;13765;51.166;4.466;2022-10-31T13:13:11;18.80;99.90
25973;DHT22;13765;51.166;4.466;2022-10-31T13:15:52;19.00;99.90
25973;DHT22;13765;51.166;4.466;2022-10-31T13:18:30;19.10;99.90
25973;DHT22;13765;51.166;4.466;2022-10-31T13:20:59;19.20;99.90
25973;DHT22;13765;51.166;4.466;2022-10-31T13:23:33;19.30;99.90
25973;DHT22;13765;51.166;4.466;2022-10-31T13:26:06;19.30;99.90
25973;DHT22;13765;51.166;4.466;2022-10-31T13:31:09;19.30;99.90
25973;DHT22;13765;51.166;4.466;2022-10-31T13:41:34;19.40;99.90
25973;DHT22;13765;51.166;4.466;2022-10-31T13:46:41;19.40;99.90
25973;DHT22;13765;51.166;4.466;2022-10-31T13:51:49;19.40;99.90
25973;DHT22;13765;51.166;4.466;2022-10-31T13:54:31;19.40;99.90
25973;DHT22;13765;51.166;4.466;2022-10-31T13:56:57;19.40;99.90
25973;DHT22;13765;51.166;4.466;2022-10-31T13:59:27;19.20;99.90
25973;DHT22;13765;51.166;4.466;2022-10-31T14:02:12;19.20;99.90
25973;DHT22;13765;51.166;4.466;2022-10-31T14:04:45;19.20;99.90
25973;DHT22;13765;51.166;4.466;2022-10-31T14:07:14;19.20;99.90
25973;DHT22;13765;51.166;4.466;2022-10-31T14:15:26;19.10;99.90
25973;DHT22;13765;51.166;4.466;2022-10-31T14:18:05;19.20;99.90
25973;DHT22;13765;51.166;4.466;2022-10-31T14:20:34;19.20;99.90
25973;DHT22;13765;51.166;4.466;2022-10-31T14:28:56;19.10;99.90
25973;DHT22;13765;51.166;4.466;2022-10-31T14:31:35;19.00;99.90
25973;DHT22;13765;51.166;4.466;2022-10-31T14:40:17;19.10;99.90
25973;DHT22;13765;51.166;4.466;2022-10-31T14:45:29;19.00;99.90
25973;DHT22;13765;51.166;4.466;2022-10-31T14:51:01;19.00;99.90
25973;DHT22;13765;51.166;4.466;2022-10-31T14:53:34;19.00;99.90
25973;DHT22;13765;51.166;4.466;2022-10-31T14:56:01;19.00;99.90
25973;DHT22;13765;51.166;4.466;2022-10-31T14:58:35;18.90;99.90
25973;DHT22;13765;51.166;4.466;2022-10-31T15:01:04;18.90;99.90
25973;DHT22;13765;51.166;4.466;2022-10-31T15:03:36;18.80;99.90
25973;DHT22;13765;51.166;4.466;2022-10-31T15:06:13;18.80;99.90
25973;DHT22;13765;51.166;4.466;2022-10-31T15:08:45;18.80;99.90
25973;DHT22;13765;51.166;4.466;2022-10-31T15:11:17;18.80;99.90
25973;DHT22;13765;51.166;4.466;2022-10-31T15:13:54;18.90;99.90
25973;DHT22;13765;51.166;4.466;2022-10-31T15:16:27;18.80;99.90
25973;DHT22;13765;51.166;4.466;2022-10-31T15:19:09;18.80;99.90
25973;DHT22;13765;51.166;4.466;2022-10-31T15:21:41;18.70;99.90
25973;DHT22;13765;51.166;4.466;2022-10-31T15:24:13;18.70;99.90
25973;DHT22;13765;51.166;4.466;2022-10-31T15:26:46;18.70;99.90
25973;DHT22;13765;51.166;4.466;2022-10-31T15:29:20;18.50;99.90
25973;DHT22;13765;51.166;4.466;2022-10-31T15:34:40;18.60;99.90
25973;DHT22;13765;51.166;4.466;2022-10-31T15:37:13;18.50;99.90
25973;DHT22;13765;51.166;4.466;2022-10-31T15:39:43;18.50;99.90
25973;DHT22;13765;51.166;4.466;2022-10-31T15:42:20;18.40;99.90
25973;DHT22;13765;51.166;4.466;2022-10-31T15:44:55;18.30;99.90
25973;DHT22;13765;51.166;4.466;2022-10-31T15:47:23;18.20;99.90
25973;DHT22;13765;51.166;4.466;2022-10-31T15:49:53;18.20;99.90
25973;DHT22;13765;51.166;4.466;2022-10-31T15:55:00;18.10;99.90
25973;DHT22;13765;51.166;4.466;2022-10-31T15:57:27;18.10;99.90
25973;DHT22;13765;51.166;4.466;2022-10-31T15:59:58;18.10;99.90
25973;DHT22;13765;51.166;4.466;2022-10-31T16:02:27;17.90;99.90
25973;DHT22;13765;51.166;4.466;2022-10-31T16:04:57;17.90;99.90
25973;DHT22;13765;51.166;4.466;2022-10-31T16:07:26;17.80;99.90
25973;DHT22;13765;51.166;4.466;2022-10-31T16:09:58;17.80;99.90
25973;DHT22;13765;51.166;4.466;2022-10-31T16:12:25;17.70;99.90
25973;DHT22;13765;51.166;4.466;2022-10-31T16:14:56;17.70;99.90
25973;DHT22;13765;51.166;4.466;2022-10-31T16:17:29;17.70;99.90
25973;DHT22;13765;51.166;4.466;2022-10-31T16:20:04;17.50;99.90
25973;DHT22;13765;51.166;4.466;2022-10-31T16:22:37;17.40;99.90
25973;DHT22;13765;51.166;4.466;2022-10-31T16:25:15;17.30;99.90
25973;DHT22;13765;51.166;4.466;2022-10-31T16:27:48;17.20;99.90
25973;DHT22;13765;51.166;4.466;2022-10-31T16:33:01;17.00;99.90
25973;DHT22;13765;51.166;4.466;2022-10-31T16:35:32;17.00;99.90
25973;DHT22;13765;51.166;4.466;2022-10-31T16:37:59;16.90;99.90
25973;DHT22;13765;51.166;4.466;2022-10-31T16:40:26;16.80;99.90
25973;DHT22;13765;51.166;4.466;2022-10-31T16:42:53;16.80;99.90
25973;DHT22;13765;51.166;4.466;2022-10-31T16:45:21;16.80;99.90
25973;DHT22;13765;51.166;4.466;2022-10-31T16:47:52;16.70;99.90
25973;DHT22;13765;51.166;4.466;2022-10-31T16:50:24;16.70;99.90
25973;DHT22;13765;51.166;4.466;2022-10-31T16:52:51;16.60;99.90
25973;DHT22;13765;51.166;4.466;2022-10-31T16:55:19;16.70;99.90
25973;DHT22;13765;51.166;4.466;2022-10-31T16:57:52;16.60;99.90
25973;DHT22;13765;51.166;4.466;2022-10-31T17:00:20;16.60;99.90
25973;DHT22;13765;51.166;4.466;2022-10-31T17:02:50;16.60;99.90
25973;DHT22;13765;51.166;4.466;2022-10-31T17:05:20;16.60;99.90
25973;DHT22;13765;51.166;4.466;2022-10-31T17:07:49;16.60;99.90
25973;DHT22;13765;51.166;4.466;2022-10-31T17:10:16;16.50;99.90
25973;DHT22;13765;51.166;4.466;2022-10-31T17:12:47;16.50;99.90
25973;DHT22;13765;51.166;4.466;2022-10-31T17:15:23;16.40;99.90
25973;DHT22;13765;51.166;4.466;2022-10-31T17:17:51;16.30;99.90
25973;DHT22;13765;51.166;4.466;2022-10-31T17:20:26;16.40;99.90
25973;DHT22;13765;51.166;4.466;2022-10-31T17:22:53;16.40;99.90
25973;DHT22;13765;51.166;4.466;2022-10-31T17:25:24;16.40;99.90
25973;DHT22;13765;51.166;4.466;2022-10-31T17:27:51;16.30;99.90
25973;DHT22;13765;51.166;4.466;2022-10-31T17:30:20;16.30;99.90
25973;DHT22;13765;51.166;4.466;2022-10-31T17:32:47;16.30;99.90
25973;DHT22;13765;51.166;4.466;2022-10-31T17:35:17;16.20;99.90
25973;DHT22;13765;51.166;4.466;2022-10-31T17:37:46;16.30;99.90
25973;DHT22;13765;51.166;4.466;2022-10-31T17:40:15;16.30;99.90
25973;DHT22;13765;51.166;4.466;2022-10-31T17:42:42;16.30;99.90
25973;DHT22;13765;51.166;4.466;2022-10-31T17:45:08;16.40;99.90
25973;DHT22;13765;51.166;4.466;2022-10-31T17:47:36;16.30;99.90
25973;DHT22;13765;51.166;4.466;2022-10-31T17:50:02;16.30;99.90
25973;DHT22;13765;51.166;4.466;2022-10-31T17:52:28;16.30;99.90
25973;DHT22;13765;51.166;4.466;2022-10-31T17:54:54;16.40;99.90
25973;DHT22;13765;51.166;4.466;2022-10-31T17:57:20;16.40;99.90
25973;DHT22;13765;51.166;4.466;2022-10-31T17:59:46;16.40;99.90
25973;DHT22;13765;51.166;4.466;2022-10-31T18:02:12;16.40;99.90
25973;DHT22;13765;51.166;4.466;2022-10-31T18:04:41;16.40;99.90
25973;DHT22;13765;51.166;4.466;2022-10-31T18:07:07;16.40;99.90
25973;DHT22;13765;51.166;4.466;2022-10-31T18:09:36;16.40;99.90
25973;DHT22;13765;51.166;4.466;2022-10-31T18:12:01;16.40;99.90
25973;DHT22;13765;51.166;4.466;2022-10-31T18:14:27;16.50;99.90
25973;DHT22;13765;51.166;4.466;2022-10-31T18:16:56;16.40;99.90
25973;DHT22;13765;51.166;4.466;2022-10-31T18:19:22;16.40;99.90
25973;DHT22;13765;51.166;4.466;2022-10-31T18:21:51;16.40;99.90
25973;DHT22;13765;51.166;4.466;2022-10-31T18:24:16;16.30;99.90
25973;DHT22;13765;51.166;4.466;2022-10-31T18:26:42;16.30;99.90
25973;DHT22;13765;51.166;4.466;2022-10-31T18:29:12;16.40;99.90
25973;DHT22;13765;51.166;4.466;2022-10-31T18:31:40;16.30;99.90
25973;DHT22;13765;51.166;4.466;2022-10-31T18:34:06;16.30;99.90